createdAt,value
2019-04-30T00:01:19.994Z,99.90
2019-04-30T00:05:25.153Z,99.90
2019-04-30T00:09:32.537Z,99.90
2019-04-30T00:13:31.142Z,99.90
2019-04-30T00:17:29.909Z,99.90
2019-04-30T00:21:28.641Z,99.90
2019-04-30T00:25:32.545Z,99.90
2019-04-30T00:29:35.607Z,99.90
2019-04-30T00:33:36.020Z,99.90
2019-04-30T00:37:37.661Z,99.90
2019-04-30T00:41:39.832Z,99.90
2019-04-30T00:45:39.893Z,99.90
2019-04-30T00:49:37.020Z,99.90
2019-04-30T00:53:39.667Z,99.90
2019-04-30T00:57:43.653Z,99.90
2019-04-30T01:01:44.305Z,99.90
2019-04-30T01:05:46.921Z,99.90
2019-04-30T01:09:49.282Z,99.90
2019-04-30T01:14:06.674Z,99.90
2019-04-30T01:18:09.544Z,99.90
2019-04-30T01:22:10.916Z,99.90
2019-04-30T01:26:13.708Z,99.90
2019-04-30T01:30:13.467Z,99.90
2019-04-30T01:34:19.577Z,99.90
2019-04-30T01:38:18.884Z,99.90
2019-04-30T01:42:18.554Z,99.90
2019-04-30T01:46:18.966Z,99.90
2019-04-30T01:50:24.669Z,99.90
2019-04-30T01:54:25.044Z,99.90
2019-04-30T01:58:43.601Z,99.90
2019-04-30T02:02:59.147Z,99.90
2019-04-30T02:06:59.215Z,99.90
2019-04-30T02:10:59.425Z,99.90
2019-04-30T02:14:59.936Z,99.90
2019-04-30T02:19:01.787Z,99.90
2019-04-30T02:23:00.431Z,99.90
2019-04-30T02:26:59.453Z,99.90
2019-04-30T02:31:00.349Z,99.90
2019-04-30T02:35:12.542Z,99.90
2019-04-30T02:39:11.424Z,99.90
2019-04-30T02:43:11.549Z,99.90
2019-04-30T02:47:12.573Z,99.90
2019-04-30T02:51:14.221Z,99.90
2019-04-30T02:55:15.903Z,99.90
2019-04-30T02:59:16.876Z,99.90
2019-04-30T03:03:20.410Z,99.90
2019-04-30T03:07:29.829Z,99.90
2019-04-30T03:11:35.751Z,99.90
2019-04-30T03:15:44.618Z,99.90
2019-04-30T03:19:47.162Z,99.90
2019-04-30T03:23:45.749Z,99.90
2019-04-30T03:27:45.017Z,99.90
2019-04-30T03:31:52.392Z,99.90
2019-04-30T03:35:54.149Z,99.90
2019-04-30T03:39:53.035Z,99.90
2019-04-30T03:44:16.475Z,99.90
2019-04-30T03:48:02.091Z,99.90
2019-04-30T03:52:00.679Z,99.90
2019-04-30T03:56:01.454Z,99.90
2019-04-30T03:59:59.709Z,99.90
2019-04-30T04:04:26.930Z,99.90
2019-04-30T04:08:29.375Z,99.90
2019-04-30T04:12:30.450Z,99.90
2019-04-30T04:16:32.098Z,99.90
2019-04-30T04:20:29.894Z,99.90
2019-04-30T04:24:31.959Z,99.90
2019-04-30T04:28:36.179Z,99.90
2019-04-30T04:32:34.718Z,99.90
2019-04-30T04:36:44.585Z,99.90
2019-04-30T04:40:45.621Z,99.90
2019-04-30T04:44:45.345Z,99.90
2019-04-30T04:48:43.903Z,99.90
2019-04-30T04:52:42.450Z,99.90
2019-04-30T04:56:41.090Z,99.90
2019-04-30T05:00:39.743Z,99.90
2019-04-30T05:04:40.918Z,99.90
2019-04-30T05:08:39.664Z,99.90
2019-04-30T05:12:40.611Z,99.90
2019-04-30T05:16:42.666Z,99.90
2019-04-30T05:20:51.035Z,99.90
2019-04-30T05:24:55.505Z,99.90
2019-04-30T05:28:59.436Z,99.90
2019-04-30T05:33:05.402Z,99.90
2019-04-30T05:37:11.052Z,99.90
2019-04-30T05:41:11.284Z,99.90
2019-04-30T05:45:12.180Z,99.90
2019-04-30T05:49:10.724Z,99.90
2019-04-30T05:53:09.269Z,99.90
2019-04-30T05:57:09.500Z,99.90
2019-04-30T06:01:11.247Z,99.90
2019-04-30T06:05:11.164Z,99.90
2019-04-30T06:09:22.763Z,99.90
2019-04-30T06:13:16.789Z,99.90
2019-04-30T06:17:19.976Z,99.90
2019-04-30T06:21:21.323Z,99.90
2019-04-30T06:25:28.322Z,99.90
2019-04-30T06:29:24.275Z,99.90
2019-04-30T06:33:26.311Z,99.90
2019-04-30T06:37:31.938Z,99.90
2019-04-30T06:41:32.590Z,99.90
2019-04-30T06:45:35.999Z,99.90
2019-04-30T06:49:48.819Z,99.90
2019-04-30T06:53:52.688Z,99.90
2019-04-30T06:57:43.673Z,99.90
2019-04-30T07:01:45.792Z,99.90
2019-04-30T07:05:45.059Z,99.90
2019-04-30T07:09:53.154Z,99.90
2019-04-30T07:13:52.251Z,99.90
2019-04-30T07:17:51.260Z,99.90
2019-04-30T07:21:50.234Z,99.90
2019-04-30T07:25:55.827Z,99.90
2019-04-30T07:29:55.044Z,99.90
2019-04-30T07:33:59.536Z,99.90
2019-04-30T07:38:03.354Z,99.90
2019-04-30T07:41:59.953Z,99.90
2019-04-30T07:45:59.815Z,99.90
2019-04-30T07:50:00.711Z,99.90
2019-04-30T07:54:03.231Z,99.90
2019-04-30T07:58:05.013Z,99.90
2019-04-30T08:02:15.026Z,99.90
2019-04-30T08:06:10.384Z,99.90
2019-04-30T08:10:09.983Z,99.90
2019-04-30T08:14:13.861Z,99.90
2019-04-30T08:18:16.249Z,99.90
2019-04-30T08:22:16.994Z,99.90
2019-04-30T08:26:24.216Z,99.90
2019-04-30T08:30:26.699Z,99.90
2019-04-30T08:34:26.258Z,99.90
2019-04-30T08:38:31.236Z,99.90
2019-04-30T08:42:34.614Z,99.90
2019-04-30T08:46:35.988Z,99.90
2019-04-30T08:50:34.775Z,99.90
2019-04-30T08:54:39.303Z,99.90
2019-04-30T08:58:41.618Z,99.90
2019-04-30T09:02:43.821Z,99.90
2019-04-30T09:06:42.699Z,99.90
2019-04-30T09:10:49.065Z,99.90
2019-04-30T09:14:52.374Z,99.90
2019-04-30T09:18:50.929Z,99.90
2019-04-30T09:22:52.704Z,99.90
2019-04-30T09:26:51.378Z,99.90
2019-04-30T09:30:53.942Z,99.90
2019-04-30T09:34:53.062Z,99.90
2019-04-30T09:38:58.703Z,99.90
2019-04-30T09:43:00.176Z,99.90
2019-04-30T09:47:11.117Z,99.90
2019-04-30T09:51:11.000Z,99.90
2019-04-30T09:55:10.886Z,99.90
2019-04-30T09:59:09.939Z,99.90
2019-04-30T10:03:10.497Z,99.90
2019-04-30T10:07:12.483Z,99.90
2019-04-30T10:11:30.980Z,99.90
2019-04-30T10:15:31.974Z,99.90
2019-04-30T10:19:39.300Z,99.90
2019-04-30T10:23:39.783Z,99.90
2019-04-30T10:27:51.067Z,99.90
2019-04-30T10:31:56.399Z,99.90
2019-04-30T10:35:59.483Z,99.90
2019-04-30T10:39:59.776Z,99.90
2019-04-30T10:48:31.186Z,99.90
2019-04-30T10:56:49.074Z,99.90
2019-04-30T11:00:49.866Z,99.90
2019-04-30T11:04:48.335Z,99.90
2019-04-30T11:08:53.675Z,99.40
2019-04-30T11:12:54.143Z,99.90
2019-04-30T11:16:56.071Z,99.90
2019-04-30T11:20:55.078Z,98.70
2019-04-30T11:25:02.216Z,97.20
2019-04-30T11:29:00.777Z,98.90
2019-04-30T11:32:59.769Z,97.30
2019-04-30T11:37:01.527Z,99.70
2019-04-30T11:41:01.608Z,99.00
2019-04-30T11:45:00.168Z,95.00
2019-04-30T11:49:01.976Z,96.00
2019-04-30T11:53:19.424Z,95.50
2019-04-30T11:57:09.938Z,92.00
2019-04-30T12:01:13.980Z,90.60
2019-04-30T12:05:20.553Z,91.90
2019-04-30T12:09:24.826Z,93.20
2019-04-30T12:13:35.360Z,90.10
2019-04-30T12:17:35.546Z,89.80
2019-04-30T12:21:34.182Z,86.00
2019-04-30T12:25:32.760Z,87.70
2019-04-30T12:29:35.603Z,88.70
2019-04-30T12:33:34.250Z,86.80
2019-04-30T12:37:33.636Z,83.10
2019-04-30T12:41:32.334Z,83.90
2019-04-30T12:45:39.289Z,81.60
2019-04-30T12:49:51.876Z,79.30
2019-04-30T12:54:07.060Z,79.00
2019-04-30T12:58:07.129Z,82.50
2019-04-30T13:02:09.025Z,78.20
2019-04-30T13:06:10.465Z,78.10
2019-04-30T13:10:09.347Z,77.60
2019-04-30T13:14:19.952Z,77.60
2019-04-30T13:18:21.517Z,76.20
2019-04-30T13:22:21.892Z,77.40
2019-04-30T13:26:23.404Z,77.20
2019-04-30T13:30:24.676Z,78.40
2019-04-30T13:34:33.415Z,77.10
2019-04-30T13:38:49.203Z,78.10
2019-04-30T13:42:44.599Z,73.70
2019-04-30T13:46:45.226Z,74.50
2019-04-30T13:50:43.800Z,74.50
2019-04-30T13:54:48.606Z,74.30
2019-04-30T13:58:49.029Z,74.10
2019-04-30T14:02:54.609Z,72.60
2019-04-30T14:07:11.507Z,74.30
2019-04-30T14:11:12.546Z,71.10
2019-04-30T14:15:16.359Z,70.80
2019-04-30T14:19:14.995Z,71.40
2019-04-30T14:23:13.574Z,71.90
2019-04-30T14:27:20.683Z,72.10
2019-04-30T14:31:22.539Z,73.40
2019-04-30T14:35:28.661Z,71.90
2019-04-30T14:39:29.404Z,68.10
2019-04-30T14:43:41.641Z,58.40
2019-04-30T14:47:44.032Z,54.50
2019-04-30T14:51:49.020Z,49.80
2019-04-30T14:56:08.724Z,48.70
2019-04-30T15:00:05.936Z,46.40
2019-04-30T15:04:06.922Z,45.70
2019-04-30T15:08:05.828Z,45.00
2019-04-30T15:12:06.408Z,44.40
2019-04-30T15:16:15.168Z,44.70
2019-04-30T15:20:10.195Z,44.10
2019-04-30T15:24:33.850Z,42.70
2019-04-30T15:28:32.741Z,43.30
2019-04-30T15:32:33.272Z,43.00
2019-04-30T15:36:33.141Z,43.40
2019-04-30T15:40:33.792Z,45.10
2019-04-30T15:44:45.219Z,46.50
2019-04-30T15:48:41.164Z,46.30
2019-04-30T15:52:41.476Z,49.00
2019-04-30T15:56:42.348Z,54.80
2019-04-30T16:00:44.022Z,56.80
2019-04-30T16:04:49.179Z,58.10
2019-04-30T16:09:00.386Z,59.40
2019-04-30T16:13:17.068Z,60.90
2019-04-30T16:17:24.324Z,64.50
2019-04-30T16:21:29.232Z,66.50
2019-04-30T16:25:30.206Z,66.90
2019-04-30T16:29:33.193Z,68.40
2019-04-30T16:33:36.759Z,71.50
2019-04-30T16:37:34.763Z,71.80
2019-04-30T16:41:40.834Z,76.20
2019-04-30T16:45:38.946Z,77.10
2019-04-30T16:49:40.429Z,79.00
2019-04-30T16:53:40.278Z,84.10
2019-04-30T16:57:39.857Z,82.60
2019-04-30T17:01:40.493Z,85.80
2019-04-30T17:05:48.013Z,94.20
2019-04-30T17:09:53.302Z,94.70
2019-04-30T17:13:53.886Z,98.30
2019-04-30T17:17:52.478Z,99.70
2019-04-30T17:21:51.495Z,99.90
2019-04-30T17:25:50.600Z,99.90
2019-04-30T17:29:50.696Z,99.90
2019-04-30T17:33:54.127Z,99.90
2019-04-30T17:37:58.634Z,99.90
2019-04-30T17:41:59.440Z,99.90
2019-04-30T17:45:58.912Z,99.90
2019-04-30T17:50:00.774Z,99.90
2019-04-30T17:54:12.806Z,99.90
2019-04-30T17:58:11.820Z,99.90
2019-04-30T18:02:12.564Z,99.90
2019-04-30T18:06:19.952Z,99.90
2019-04-30T18:10:20.476Z,99.90
2019-04-30T18:14:20.410Z,99.90
2019-04-30T18:18:23.732Z,99.90
2019-04-30T18:22:42.307Z,99.90
2019-04-30T18:26:42.579Z,99.90
2019-04-30T18:30:42.114Z,99.90
2019-04-30T18:34:40.841Z,99.90
2019-04-30T18:38:41.221Z,99.90
2019-04-30T18:42:46.104Z,99.90
2019-04-30T18:46:54.102Z,99.90
2019-04-30T18:50:48.445Z,99.90
2019-04-30T18:54:51.910Z,99.90
2019-04-30T18:58:50.915Z,99.90
2019-04-30T19:02:50.699Z,99.90
2019-04-30T19:06:51.889Z,99.90
2019-04-30T19:11:01.132Z,99.90
2019-04-30T19:15:19.099Z,99.90
2019-04-30T19:19:32.272Z,99.90
2019-04-30T19:23:35.006Z,99.90
2019-04-30T19:27:33.573Z,99.90
2019-04-30T19:31:36.842Z,99.90
2019-04-30T19:35:42.787Z,99.90
2019-04-30T19:39:41.336Z,99.90
2019-04-30T19:43:42.028Z,99.90
2019-04-30T19:47:41.840Z,99.90
2019-04-30T19:51:43.017Z,99.90
2019-04-30T19:55:53.914Z,99.90
2019-04-30T19:59:52.714Z,99.90
2019-04-30T20:03:51.309Z,99.90
2019-04-30T20:07:50.386Z,99.90
2019-04-30T20:11:52.693Z,99.90
2019-04-30T20:15:56.611Z,99.90
2019-04-30T20:20:01.919Z,99.90
2019-04-30T20:24:14.442Z,99.90
2019-04-30T20:28:16.511Z,99.90
2019-04-30T20:32:23.487Z,99.90
2019-04-30T20:36:20.059Z,99.90
2019-04-30T20:40:20.394Z,99.90
2019-04-30T20:44:20.716Z,99.90
2019-04-30T20:48:19.972Z,99.90
2019-04-30T20:52:18.989Z,99.90
2019-04-30T20:56:19.362Z,99.90
2019-04-30T21:00:23.050Z,99.90
2019-04-30T21:04:21.646Z,99.90
2019-04-30T21:08:28.661Z,99.90
2019-04-30T21:12:28.801Z,99.90
2019-04-30T21:16:42.864Z,99.90
2019-04-30T21:20:43.907Z,99.90
2019-04-30T21:24:42.100Z,99.90
2019-04-30T21:28:41.058Z,99.90
2019-04-30T21:32:53.518Z,99.90
2019-04-30T21:36:53.036Z,99.90
2019-04-30T21:40:52.013Z,99.90
2019-04-30T21:44:50.534Z,99.90
2019-04-30T21:48:55.713Z,99.90
2019-04-30T21:52:55.517Z,99.90
2019-04-30T21:56:54.138Z,99.90
2019-04-30T22:00:57.571Z,99.90
2019-04-30T22:04:59.553Z,99.90
2019-04-30T22:08:58.583Z,99.90
2019-04-30T22:12:58.640Z,99.90
2019-04-30T22:16:59.434Z,99.90
2019-04-30T22:20:58.077Z,99.90
2019-04-30T22:24:59.709Z,99.90
2019-04-30T22:28:59.305Z,99.90
2019-04-30T22:32:59.612Z,99.90
2019-04-30T22:36:58.697Z,99.90
2019-04-30T22:45:25.512Z,99.90
2019-04-30T22:49:20.389Z,99.90
2019-04-30T22:53:19.803Z,99.90
2019-04-30T22:57:18.416Z,99.90
2019-04-30T23:01:37.305Z,99.90
2019-04-30T23:05:42.225Z,99.90
2019-04-30T23:09:41.499Z,99.90
2019-04-30T23:13:40.091Z,99.90
2019-04-30T23:17:44.092Z,99.90
2019-04-30T23:21:42.711Z,99.90
2019-04-30T23:25:41.359Z,99.90
2019-04-30T23:29:44.702Z,99.90
2019-04-30T23:33:43.625Z,99.90
2019-04-30T23:37:44.955Z,99.90
2019-04-30T23:41:43.538Z,99.90
2019-04-30T23:45:42.364Z,99.90
2019-04-30T23:49:43.080Z,99.90
2019-04-30T23:53:42.226Z,99.90
2019-04-30T23:57:50.315Z,99.90
